createdAt,value
2023-01-17T00:02:21.561Z,1.71
2023-01-17T00:05:06.981Z,1.74
2023-01-17T00:07:52.998Z,1.76
2023-01-17T00:10:24.411Z,1.78
2023-01-17T00:12:58.762Z,1.82
2023-01-17T00:15:29.659Z,1.84
2023-01-17T00:17:57.532Z,1.83
2023-01-17T00:20:48.524Z,1.85
2023-01-17T00:23:41.425Z,1.90
2023-01-17T00:26:26.649Z,2.00
2023-01-17T00:28:53.717Z,2.04
2023-01-17T00:31:20.824Z,2.11
2023-01-17T00:33:47.782Z,2.17
2023-01-17T00:36:14.790Z,2.27
2023-01-17T00:38:41.843Z,2.35
2023-01-17T00:41:12.324Z,2.42
2023-01-17T00:43:58.455Z,2.47
2023-01-17T00:46:44.891Z,2.49
2023-01-17T00:49:30.788Z,2.45
2023-01-17T00:52:16.711Z,2.32
2023-01-17T00:55:02.487Z,2.00
2023-01-17T00:57:48.348Z,1.67
2023-01-17T01:00:37.595Z,1.40
2023-01-17T01:03:30.871Z,1.16
2023-01-17T01:06:16.713Z,0.98
2023-01-17T01:09:02.569Z,0.87
2023-01-17T01:11:48.475Z,0.79
2023-01-17T01:14:34.431Z,0.71
2023-01-17T01:17:20.364Z,0.65
2023-01-17T01:20:06.289Z,0.58
2023-01-17T01:22:52.156Z,0.52
2023-01-17T01:25:38.145Z,0.49
2023-01-17T01:28:32.137Z,0.51
2023-01-17T01:31:20.118Z,0.43
2023-01-17T01:33:47.648Z,0.41
2023-01-17T01:36:15.563Z,0.38
2023-01-17T01:38:42.992Z,0.41
2023-01-17T01:41:10.032Z,0.45
2023-01-17T01:44:26.828Z,0.45
2023-01-17T01:46:54.304Z,0.53
2023-01-17T01:49:28.402Z,0.56
2023-01-17T01:52:05.012Z,0.58
2023-01-17T01:54:44.608Z,0.60
2023-01-17T01:57:17.794Z,0.63
2023-01-17T01:59:56.188Z,0.63
2023-01-17T02:02:23.252Z,0.65
2023-01-17T02:04:51.901Z,0.66
2023-01-17T02:07:31.908Z,0.68
2023-01-17T02:09:59.044Z,0.65
2023-01-17T02:12:26.196Z,0.65
2023-01-17T02:14:53.227Z,0.66
2023-01-17T02:17:23.155Z,0.66
2023-01-17T02:20:09.043Z,0.71
2023-01-17T02:22:56.634Z,0.78
2023-01-17T02:25:54.543Z,0.77
2023-01-17T02:29:12.343Z,0.76
2023-01-17T02:31:55.185Z,0.76
2023-01-17T02:34:32.700Z,0.74
2023-01-17T02:37:09.980Z,0.76
2023-01-17T02:39:58.258Z,0.73
2023-01-17T02:42:34.115Z,0.75
2023-01-17T02:45:03.338Z,0.79
2023-01-17T02:47:32.285Z,0.82
2023-01-17T02:50:15.701Z,0.88
2023-01-17T02:53:19.538Z,0.93
2023-01-17T02:56:10.013Z,1.00
2023-01-17T02:59:07.434Z,1.04
2023-01-17T03:01:59.204Z,1.07
2023-01-17T03:04:45.529Z,1.13
2023-01-17T03:07:22.553Z,1.19
2023-01-17T03:09:59.467Z,1.26
2023-01-17T03:12:30.584Z,1.28
2023-01-17T03:14:58.125Z,1.30
2023-01-17T03:17:32.971Z,1.32
2023-01-17T03:19:59.941Z,1.30
2023-01-17T03:22:26.943Z,1.28
2023-01-17T03:24:54.623Z,1.27
2023-01-17T03:27:21.595Z,1.25
2023-01-17T03:29:48.618Z,1.22
2023-01-17T03:32:15.568Z,1.19
2023-01-17T03:34:42.507Z,1.16
2023-01-17T03:37:09.451Z,1.12
2023-01-17T03:39:36.652Z,1.08
2023-01-17T03:42:03.672Z,1.08
2023-01-17T03:44:30.768Z,1.05
2023-01-17T03:46:57.744Z,1.05
2023-01-17T03:49:24.745Z,1.08
2023-01-17T03:51:51.729Z,1.12
2023-01-17T03:54:18.755Z,1.14
2023-01-17T03:56:45.797Z,1.16
2023-01-17T03:59:13.489Z,1.14
2023-01-17T04:01:40.643Z,1.09
2023-01-17T04:04:07.732Z,1.00
2023-01-17T04:06:34.756Z,0.93
2023-01-17T04:09:01.819Z,0.85
2023-01-17T04:11:28.817Z,0.79
2023-01-17T04:13:55.832Z,0.74
2023-01-17T04:16:31.019Z,0.67
2023-01-17T04:18:58.366Z,0.63
2023-01-17T04:21:25.388Z,0.59
2023-01-17T04:23:52.473Z,0.55
2023-01-17T04:26:19.514Z,0.52
2023-01-17T04:28:46.613Z,0.51
2023-01-17T04:31:17.609Z,0.51
2023-01-17T04:33:44.781Z,0.52
2023-01-17T04:36:11.825Z,0.56
2023-01-17T04:38:38.956Z,0.60
2023-01-17T04:41:05.920Z,0.59
2023-01-17T04:43:33.049Z,0.59
2023-01-17T04:46:00.033Z,0.58
2023-01-17T04:48:27.604Z,0.57
2023-01-17T04:51:02.542Z,0.57
2023-01-17T04:53:29.563Z,0.57
2023-01-17T04:55:57.685Z,0.59
2023-01-17T04:58:24.664Z,0.64
2023-01-17T05:00:51.892Z,0.67
2023-01-17T05:03:22.049Z,0.72
2023-01-17T05:05:49.423Z,0.75
2023-01-17T05:08:16.488Z,0.79
2023-01-17T05:10:47.063Z,0.74
2023-01-17T05:13:14.755Z,0.66
2023-01-17T05:15:41.799Z,0.57
2023-01-17T05:18:14.904Z,0.48
2023-01-17T05:20:42.516Z,0.40
2023-01-17T05:23:09.610Z,0.34
2023-01-17T05:25:36.972Z,0.30
2023-01-17T05:28:04.305Z,0.25
2023-01-17T05:30:33.013Z,0.24
2023-01-17T05:33:00.018Z,0.27
2023-01-17T05:35:32.597Z,0.30
2023-01-17T05:37:59.783Z,0.35
2023-01-17T05:40:30.979Z,0.42
2023-01-17T05:43:00.754Z,0.59
2023-01-17T05:45:30.553Z,0.77
2023-01-17T05:47:58.439Z,0.95
2023-01-17T05:50:34.164Z,1.05
2023-01-17T05:53:08.610Z,1.12
2023-01-17T05:55:36.875Z,1.19
2023-01-17T05:58:05.341Z,1.20
2023-01-17T06:00:32.625Z,1.11
2023-01-17T06:03:01.487Z,0.96
2023-01-17T06:05:30.052Z,0.84
2023-01-17T06:07:57.971Z,0.84
2023-01-17T06:10:26.212Z,0.87
2023-01-17T06:13:08.738Z,0.92
2023-01-17T06:15:38.017Z,0.87
2023-01-17T06:18:12.309Z,0.74
2023-01-17T06:20:40.451Z,0.62
2023-01-17T06:23:11.809Z,0.52
2023-01-17T06:25:44.046Z,0.41
2023-01-17T06:28:14.477Z,0.32
2023-01-17T06:30:43.907Z,0.23
2023-01-17T06:33:12.791Z,0.15
2023-01-17T06:35:41.058Z,0.09
2023-01-17T06:38:09.946Z,0.05
2023-01-17T06:40:37.033Z,0.03
2023-01-17T06:43:05.412Z,0.00
2023-01-17T06:45:35.544Z,-0.04
2023-01-17T06:48:05.250Z,-0.11
2023-01-17T06:50:34.058Z,-0.16
2023-01-17T06:53:05.223Z,-0.22
2023-01-17T06:55:35.030Z,-0.25
2023-01-17T06:58:03.148Z,-0.28
2023-01-17T07:00:40.379Z,-0.29
2023-01-17T07:03:27.139Z,-0.22
2023-01-17T07:05:54.598Z,-0.17
2023-01-17T07:08:21.695Z,-0.10
2023-01-17T07:10:49.317Z,-0.03
2023-01-17T07:13:16.668Z,0.04
2023-01-17T07:15:43.772Z,0.11
2023-01-17T07:18:10.805Z,0.18
2023-01-17T07:20:38.506Z,0.23
2023-01-17T07:23:06.695Z,0.28
2023-01-17T07:25:33.840Z,0.35
2023-01-17T07:28:00.824Z,0.39
2023-01-17T07:30:27.946Z,0.41
2023-01-17T07:32:55.770Z,0.38
2023-01-17T07:35:27.980Z,0.33
2023-01-17T07:37:55.359Z,0.28
2023-01-17T07:40:23.078Z,0.22
2023-01-17T07:42:50.160Z,0.19
2023-01-17T07:45:17.992Z,0.13
2023-01-17T07:47:45.133Z,0.08
2023-01-17T07:50:13.653Z,0.04
2023-01-17T07:52:41.352Z,0.01
2023-01-17T07:55:09.941Z,-0.02
2023-01-17T07:57:36.968Z,-0.05
2023-01-17T08:00:05.339Z,-0.05
2023-01-17T08:02:39.411Z,-0.05
2023-01-17T08:05:06.738Z,-0.03
2023-01-17T08:07:34.270Z,-0.02
2023-01-17T08:10:01.598Z,0.02
2023-01-17T08:12:29.610Z,0.07
2023-01-17T08:14:56.661Z,0.12
2023-01-17T08:17:23.686Z,0.18
2023-01-17T08:19:52.165Z,0.27
2023-01-17T08:22:19.948Z,0.35
2023-01-17T08:24:47.539Z,0.44
2023-01-17T08:27:15.211Z,0.52
2023-01-17T08:29:47.110Z,0.56
2023-01-17T08:32:15.735Z,0.58
2023-01-17T08:34:42.687Z,0.58
2023-01-17T08:37:09.656Z,0.57
2023-01-17T08:39:36.605Z,0.59
2023-01-17T08:42:03.827Z,0.57
2023-01-17T08:44:30.876Z,0.57
2023-01-17T08:46:58.304Z,0.58
2023-01-17T08:49:25.827Z,0.58
2023-01-17T08:51:52.880Z,0.60
2023-01-17T08:54:19.991Z,0.61
2023-01-17T08:56:47.489Z,0.64
2023-01-17T08:59:14.729Z,0.67
2023-01-17T09:01:42.086Z,0.67
2023-01-17T09:04:09.667Z,0.75
2023-01-17T09:06:45.515Z,0.80
2023-01-17T09:09:13.692Z,0.82
2023-01-17T09:11:40.742Z,0.84
2023-01-17T09:14:07.861Z,0.84
2023-01-17T09:16:35.065Z,0.85
2023-01-17T09:19:02.172Z,0.88
2023-01-17T09:21:29.185Z,0.90
2023-01-17T09:23:56.335Z,0.93
2023-01-17T09:26:28.471Z,0.98
2023-01-17T09:28:56.160Z,1.01
2023-01-17T09:31:24.170Z,1.02
2023-01-17T09:33:54.106Z,1.00
2023-01-17T09:36:22.259Z,0.97
2023-01-17T09:38:49.578Z,0.97
2023-01-17T09:41:47.057Z,1.03
2023-01-17T09:44:38.816Z,1.05
2023-01-17T09:47:37.096Z,1.03
2023-01-17T09:50:36.410Z,1.08
2023-01-17T09:53:11.872Z,1.18
2023-01-17T09:56:03.648Z,1.34
2023-01-17T09:59:08.574Z,1.46
2023-01-17T10:02:04.233Z,1.65
2023-01-17T10:04:48.993Z,1.77
2023-01-17T10:07:29.633Z,1.90
2023-01-17T10:10:28.053Z,2.00
2023-01-17T10:13:24.187Z,2.11
2023-01-17T10:16:00.152Z,2.19
2023-01-17T10:18:56.502Z,2.23
2023-01-17T10:22:21.025Z,2.21
2023-01-17T10:25:28.323Z,2.28
2023-01-17T10:28:09.901Z,2.30
2023-01-17T10:30:46.075Z,2.29
2023-01-17T10:33:18.650Z,2.31
2023-01-17T10:36:10.138Z,2.37
2023-01-17T10:38:41.710Z,2.49
2023-01-17T10:41:24.176Z,2.54
2023-01-17T10:44:25.127Z,2.54
2023-01-17T10:47:20.554Z,2.58
2023-01-17T10:50:01.907Z,2.69
2023-01-17T10:52:58.956Z,2.80
2023-01-17T10:55:48.394Z,2.83
2023-01-17T10:58:15.479Z,2.92
2023-01-17T11:01:18.982Z,2.97
2023-01-17T11:03:55.058Z,2.98
2023-01-17T11:06:27.821Z,3.00
2023-01-17T11:09:10.702Z,3.06
2023-01-17T11:11:48.659Z,3.14
2023-01-17T11:14:26.128Z,3.21
2023-01-17T11:17:07.083Z,3.29
2023-01-17T11:19:36.410Z,3.29
2023-01-17T11:22:07.324Z,3.29
2023-01-17T11:24:47.186Z,3.32
2023-01-17T11:27:58.379Z,3.39
2023-01-17T11:30:29.345Z,3.40
2023-01-17T11:33:07.121Z,3.43
2023-01-17T11:35:37.566Z,3.52
2023-01-17T11:38:16.429Z,3.61
2023-01-17T11:40:46.669Z,3.72
2023-01-17T11:43:30.460Z,3.83
2023-01-17T11:46:14.633Z,3.94
2023-01-17T11:48:41.622Z,4.03
2023-01-17T11:51:22.693Z,4.17
2023-01-17T11:53:50.327Z,4.26
2023-01-17T11:56:19.506Z,4.34
2023-01-17T11:58:47.305Z,4.39
2023-01-17T12:01:37.149Z,4.47
2023-01-17T12:04:45.115Z,4.51
2023-01-17T12:07:37.977Z,4.59
2023-01-17T12:10:44.726Z,4.68
2023-01-17T12:13:57.819Z,4.70
2023-01-17T12:16:50.544Z,4.70
2023-01-17T12:19:37.989Z,4.57
2023-01-17T12:22:42.125Z,4.45
2023-01-17T12:25:39.556Z,4.38
2023-01-17T12:28:37.145Z,4.28
2023-01-17T12:31:29.763Z,4.16
2023-01-17T12:34:02.636Z,3.94
2023-01-17T12:36:42.575Z,3.80
2023-01-17T12:39:14.141Z,3.71
2023-01-17T12:42:04.343Z,3.74
2023-01-17T12:44:58.415Z,3.82
2023-01-17T12:47:26.091Z,3.81
2023-01-17T12:50:30.768Z,3.82
2023-01-17T12:53:21.960Z,3.88
2023-01-17T12:55:58.644Z,3.87
2023-01-17T12:58:34.863Z,3.89
2023-01-17T13:01:19.869Z,3.89
2023-01-17T13:04:30.516Z,3.91
2023-01-17T13:07:10.720Z,3.90
2023-01-17T13:09:59.012Z,3.93
2023-01-17T13:12:34.508Z,3.96
2023-01-17T13:15:03.908Z,3.97
2023-01-17T13:17:46.356Z,3.98
2023-01-17T13:20:31.817Z,3.97
2023-01-17T13:23:16.763Z,3.98
2023-01-17T13:25:50.347Z,3.93
2023-01-17T13:28:45.531Z,3.96
2023-01-17T13:31:32.144Z,3.92
2023-01-17T13:34:14.077Z,3.92
2023-01-17T13:37:20.152Z,3.93
2023-01-17T13:40:29.728Z,3.95
2023-01-17T13:43:03.754Z,3.90
2023-01-17T13:45:35.718Z,3.94
2023-01-17T13:48:18.700Z,3.97
2023-01-17T13:50:58.382Z,3.97
2023-01-17T13:53:34.574Z,3.94
2023-01-17T13:56:12.873Z,3.91
2023-01-17T13:58:54.370Z,3.92
2023-01-17T14:01:24.584Z,3.92
2023-01-17T14:03:51.968Z,3.92
2023-01-17T14:06:48.020Z,3.97
2023-01-17T14:09:40.936Z,4.00
2023-01-17T14:12:10.810Z,3.99
2023-01-17T14:14:40.867Z,3.98
2023-01-17T14:17:23.605Z,3.99
2023-01-17T14:19:55.024Z,3.98
2023-01-17T14:22:26.184Z,3.96
2023-01-17T14:25:18.063Z,3.98
2023-01-17T14:27:58.462Z,3.97
2023-01-17T14:30:36.553Z,3.93
2023-01-17T14:33:08.587Z,3.88
2023-01-17T14:35:51.240Z,3.83
2023-01-17T14:38:34.100Z,3.78
2023-01-17T14:41:13.101Z,3.71
2023-01-17T14:43:43.515Z,3.65
2023-01-17T14:46:23.880Z,3.56
2023-01-17T14:49:00.157Z,3.49
2023-01-17T14:51:28.278Z,3.44
2023-01-17T14:53:59.311Z,3.36
2023-01-17T14:56:29.495Z,3.30
2023-01-17T14:59:17.253Z,3.24
2023-01-17T15:02:06.231Z,3.19
2023-01-17T15:04:39.311Z,3.12
2023-01-17T15:07:14.820Z,3.05
2023-01-17T15:09:44.609Z,3.02
2023-01-17T15:12:16.417Z,2.99
2023-01-17T15:14:46.793Z,2.97
2023-01-17T15:17:26.448Z,2.93
2023-01-17T15:20:08.309Z,2.87
2023-01-17T15:22:35.872Z,2.81
2023-01-17T15:25:03.687Z,2.77
2023-01-17T15:27:32.238Z,2.72
2023-01-17T15:30:02.292Z,2.67
2023-01-17T15:32:32.587Z,2.60
2023-01-17T15:35:02.742Z,2.52
2023-01-17T15:37:32.758Z,2.43
2023-01-17T15:40:20.644Z,2.35
2023-01-17T15:42:56.709Z,2.25
2023-01-17T15:45:29.927Z,2.17
2023-01-17T15:47:59.266Z,2.10
2023-01-17T15:50:38.538Z,2.01
2023-01-17T15:53:29.673Z,1.96
2023-01-17T15:55:57.793Z,1.87
2023-01-17T15:58:30.292Z,1.81
2023-01-17T16:00:57.779Z,1.73
2023-01-17T16:03:30.616Z,1.63
2023-01-17T16:06:02.853Z,1.50
2023-01-17T16:08:34.701Z,1.39
2023-01-17T16:11:06.339Z,1.30
2023-01-17T16:13:38.696Z,1.16
2023-01-17T16:16:21.912Z,1.01
2023-01-17T16:18:58.924Z,0.85
2023-01-17T16:21:31.454Z,0.69
2023-01-17T16:24:00.444Z,0.53
2023-01-17T16:26:29.273Z,0.38
2023-01-17T16:28:56.856Z,0.24
2023-01-17T16:31:24.081Z,0.13
2023-01-17T16:33:51.486Z,0.02
2023-01-17T16:36:20.865Z,-0.10
2023-01-17T16:38:51.642Z,-0.22
2023-01-17T16:41:20.148Z,-0.34
2023-01-17T16:44:00.635Z,-0.42
2023-01-17T16:46:29.706Z,-0.50
2023-01-17T16:48:59.844Z,-0.55
2023-01-17T16:51:27.075Z,-0.63
2023-01-17T16:53:54.116Z,-0.71
2023-01-17T16:56:21.218Z,-0.77
2023-01-17T16:58:48.531Z,-0.81
2023-01-17T17:01:20.758Z,-0.86
2023-01-17T17:03:48.132Z,-0.92
2023-01-17T17:06:15.183Z,-0.99
2023-01-17T17:08:43.228Z,-1.05
2023-01-17T17:11:20.826Z,-1.14
2023-01-17T17:13:50.303Z,-1.20
2023-01-17T17:16:30.216Z,-1.26
2023-01-17T17:19:01.480Z,-1.31
2023-01-17T17:21:31.714Z,-1.37
2023-01-17T17:24:01.285Z,-1.44
2023-01-17T17:26:36.346Z,-1.47
2023-01-17T17:29:06.292Z,-1.52
2023-01-17T17:31:33.722Z,-1.55
2023-01-17T17:34:03.288Z,-1.58
2023-01-17T17:36:31.212Z,-1.61
2023-01-17T17:38:59.129Z,-1.63
2023-01-17T17:41:33.639Z,-1.66
2023-01-17T17:44:04.897Z,-1.68
2023-01-17T17:46:34.976Z,-1.72
2023-01-17T17:49:02.651Z,-1.75
2023-01-17T17:51:38.860Z,-1.78
2023-01-17T17:54:10.496Z,-1.81
2023-01-17T17:56:39.339Z,-1.84
2023-01-17T17:59:09.308Z,-1.87
2023-01-17T18:01:40.920Z,-1.89
2023-01-17T18:04:09.125Z,-1.92
2023-01-17T18:06:36.784Z,-1.93
2023-01-17T18:09:10.502Z,-1.95
2023-01-17T18:11:40.816Z,-1.98
2023-01-17T18:14:12.497Z,-1.99
2023-01-17T18:16:47.032Z,-2.01
2023-01-17T18:19:18.122Z,-2.05
2023-01-17T18:21:45.669Z,-2.05
2023-01-17T18:24:19.504Z,-2.07
2023-01-17T18:26:57.685Z,-2.08
2023-01-17T18:29:27.101Z,-2.12
2023-01-17T18:31:55.732Z,-2.15
2023-01-17T18:34:29.071Z,-2.15
2023-01-17T18:36:57.541Z,-2.21
2023-01-17T18:39:28.360Z,-2.25
2023-01-17T18:41:56.259Z,-2.29
2023-01-17T18:44:27.395Z,-2.34
2023-01-17T18:46:55.153Z,-2.36
2023-01-17T18:49:24.555Z,-2.38
2023-01-17T18:51:51.880Z,-2.44
2023-01-17T18:54:20.350Z,-2.46
2023-01-17T18:56:47.921Z,-2.50
2023-01-17T18:59:18.442Z,-2.54
2023-01-17T19:01:46.252Z,-2.57
2023-01-17T19:04:16.009Z,-2.59
2023-01-17T19:06:48.261Z,-2.63
2023-01-17T19:09:17.326Z,-2.65
2023-01-17T19:11:51.334Z,-2.69
2023-01-17T19:14:23.743Z,-2.71
2023-01-17T19:16:54.285Z,-2.73
2023-01-17T19:19:21.358Z,-2.71
2023-01-17T19:21:52.038Z,-2.73
2023-01-17T19:24:19.147Z,-2.71
2023-01-17T19:26:52.831Z,-2.72
2023-01-17T19:29:20.005Z,-2.70
2023-01-17T19:31:49.234Z,-2.68
2023-01-17T19:34:19.852Z,-2.69
2023-01-17T19:36:47.216Z,-2.71
2023-01-17T19:39:15.439Z,-2.72
2023-01-17T19:41:45.506Z,-2.72
2023-01-17T19:44:14.847Z,-2.74
2023-01-17T19:46:42.286Z,-2.74
2023-01-17T19:49:10.005Z,-2.75
2023-01-17T19:51:39.348Z,-2.77
2023-01-17T19:54:07.857Z,-2.78
2023-01-17T19:56:35.141Z,-2.77
2023-01-17T19:59:02.510Z,-2.78
2023-01-17T20:01:33.191Z,-2.80
2023-01-17T20:04:02.896Z,-2.84
2023-01-17T20:06:35.906Z,-2.85
2023-01-17T20:09:05.967Z,-2.91
2023-01-17T20:11:33.025Z,-2.93
2023-01-17T20:14:00.640Z,-2.91
2023-01-17T20:16:31.755Z,-2.92
2023-01-17T20:19:02.327Z,-2.91
2023-01-17T20:21:31.987Z,-2.87
2023-01-17T20:24:03.247Z,-2.89
2023-01-17T20:26:35.028Z,-2.89
2023-01-17T20:29:11.710Z,-2.86
2023-01-17T20:31:42.134Z,-2.85
2023-01-17T20:34:12.721Z,-2.82
2023-01-17T20:36:44.485Z,-2.79
2023-01-17T20:39:14.813Z,-2.81
2023-01-17T20:41:44.814Z,-2.82
2023-01-17T20:44:15.545Z,-2.87
2023-01-17T20:46:43.770Z,-2.87
2023-01-17T20:49:15.039Z,-2.91
2023-01-17T20:51:44.742Z,-2.94
2023-01-17T20:54:18.756Z,-2.96
2023-01-17T20:56:47.770Z,-3.00
2023-01-17T20:59:23.829Z,-3.03
2023-01-17T21:01:51.898Z,-3.10
2023-01-17T21:04:25.511Z,-3.12
2023-01-17T21:06:53.369Z,-3.13
2023-01-17T21:09:21.381Z,-3.12
2023-01-17T21:11:50.489Z,-3.12
2023-01-17T21:14:18.065Z,-3.12
2023-01-17T21:16:45.097Z,-3.12
2023-01-17T21:19:14.951Z,-3.12
2023-01-17T21:21:41.992Z,-3.15
2023-01-17T21:24:09.439Z,-3.15
2023-01-17T21:26:38.845Z,-3.14
2023-01-17T21:29:05.869Z,-3.13
2023-01-17T21:31:35.111Z,-3.15
2023-01-17T21:34:08.074Z,-3.16
2023-01-17T21:36:39.255Z,-3.17
2023-01-17T21:39:13.045Z,-3.20
2023-01-17T21:41:41.868Z,-3.23
2023-01-17T21:44:15.751Z,-3.26
2023-01-17T21:46:42.772Z,-3.29
2023-01-17T21:49:11.846Z,-3.29
2023-01-17T21:51:53.319Z,-3.30
2023-01-17T21:54:45.532Z,-3.29
2023-01-17T21:57:35.075Z,-3.30
2023-01-17T22:00:07.378Z,-3.29
2023-01-17T22:02:47.804Z,-3.23
2023-01-17T22:05:16.854Z,-3.10
2023-01-17T22:08:04.973Z,-2.97
2023-01-17T22:10:32.552Z,-2.93
2023-01-17T22:12:59.625Z,-2.97
2023-01-17T22:15:26.640Z,-3.02
2023-01-17T22:17:54.043Z,-3.09
2023-01-17T22:20:21.403Z,-3.18
2023-01-17T22:22:48.473Z,-3.22
2023-01-17T22:25:15.666Z,-3.25
2023-01-17T22:27:42.640Z,-3.28
2023-01-17T22:30:13.003Z,-3.28
2023-01-17T22:32:40.470Z,-3.31
2023-01-17T22:35:09.453Z,-3.36
2023-01-17T22:37:36.563Z,-3.40
2023-01-17T22:40:05.095Z,-3.42
2023-01-17T22:42:34.905Z,-3.46
2023-01-17T22:45:02.090Z,-3.46
2023-01-17T22:47:29.263Z,-3.48
2023-01-17T22:49:56.692Z,-3.48
2023-01-17T22:52:23.804Z,-3.48
2023-01-17T22:54:51.175Z,-3.50
2023-01-17T22:57:18.594Z,-3.49
2023-01-17T22:59:45.587Z,-3.49
2023-01-17T23:02:12.820Z,-3.49
2023-01-17T23:04:40.486Z,-3.50
2023-01-17T23:07:07.579Z,-3.51
2023-01-17T23:09:34.612Z,-3.51
2023-01-17T23:12:01.683Z,-3.51
2023-01-17T23:14:54.474Z,-3.50
2023-01-17T23:17:42.866Z,-3.54
2023-01-17T23:20:11.372Z,-3.56
2023-01-17T23:22:38.413Z,-3.60
2023-01-17T23:25:13.092Z,-3.62
2023-01-17T23:28:05.490Z,-3.65
2023-01-17T23:30:38.055Z,-3.64
2023-01-17T23:33:12.075Z,-3.62
2023-01-17T23:35:42.589Z,-3.61
2023-01-17T23:38:26.518Z,-3.64
2023-01-17T23:41:24.864Z,-3.68
2023-01-17T23:43:54.299Z,-3.71
2023-01-17T23:46:22.833Z,-3.77
2023-01-17T23:48:50.032Z,-3.81
2023-01-17T23:51:17.446Z,-3.85
2023-01-17T23:53:44.468Z,-3.87
2023-01-17T23:56:20.747Z,-3.91
2023-01-17T23:58:48.084Z,-3.91
